sensor_id;sensor_type;location;lat;lon;timestamp;temperature;humidity
14099;DHT22;7126;48.458;7.930;2022-07-23T00:00:59;23.20;99.90
14099;DHT22;7126;48.458;7.930;2022-07-23T00:03:25;23.10;99.90
14099;DHT22;7126;48.458;7.930;2022-07-23T00:05:52;23.10;99.90
14099;DHT22;7126;48.458;7.930;2022-07-23T00:08:17;23.00;99.90
14099;DHT22;7126;48.458;7.930;2022-07-23T00:10:43;23.00;99.90
14099;DHT22;7126;48.458;7.930;2022-07-23T00:13:09;23.00;99.90
14099;DHT22;7126;48.458;7.930;2022-07-23T00:15:34;22.90;99.90
14099;DHT22;7126;48.458;7.930;2022-07-23T00:18:00;22.90;99.90
14099;DHT22;7126;48.458;7.930;2022-07-23T00:20:25;22.90;99.90
14099;DHT22;7126;48.458;7.930;2022-07-23T00:22:53;22.90;99.90
14099;DHT22;7126;48.458;7.930;2022-07-23T00:25:21;22.90;99.90
14099;DHT22;7126;48.458;7.930;2022-07-23T00:27:46;22.90;99.90
14099;DHT22;7126;48.458;7.930;2022-07-23T00:30:13;22.90;99.90
14099;DHT22;7126;48.458;7.930;2022-07-23T00:32:56;22.90;99.90
14099;DHT22;7126;48.458;7.930;2022-07-23T00:35:24;23.00;99.90
14099;DHT22;7126;48.458;7.930;2022-07-23T00:37:50;23.10;99.90
14099;DHT22;7126;48.458;7.930;2022-07-23T00:40:16;23.10;99.90
14099;DHT22;7126;48.458;7.930;2022-07-23T00:42:42;23.10;99.90
14099;DHT22;7126;48.458;7.930;2022-07-23T00:45:08;23.10;99.90
14099;DHT22;7126;48.458;7.930;2022-07-23T00:47:34;23.10;99.90
14099;DHT22;7126;48.458;7.930;2022-07-23T00:50:00;23.10;99.90
14099;DHT22;7126;48.458;7.930;2022-07-23T00:52:26;23.10;99.90
14099;DHT22;7126;48.458;7.930;2022-07-23T00:54:52;23.00;99.90
14099;DHT22;7126;48.458;7.930;2022-07-23T00:57:18;23.10;99.90
14099;DHT22;7126;48.458;7.930;2022-07-23T00:59:43;23.10;99.90
14099;DHT22;7126;48.458;7.930;2022-07-23T01:02:09;23.10;99.90
14099;DHT22;7126;48.458;7.930;2022-07-23T01:04:36;23.00;99.90
14099;DHT22;7126;48.458;7.930;2022-07-23T01:07:01;23.00;99.90
14099;DHT22;7126;48.458;7.930;2022-07-23T01:09:27;22.90;99.90
14099;DHT22;7126;48.458;7.930;2022-07-23T01:11:55;22.70;99.90
14099;DHT22;7126;48.458;7.930;2022-07-23T01:14:21;22.70;99.90
14099;DHT22;7126;48.458;7.930;2022-07-23T01:16:48;22.60;99.90
14099;DHT22;7126;48.458;7.930;2022-07-23T01:19:15;22.60;99.90
14099;DHT22;7126;48.458;7.930;2022-07-23T01:21:46;22.60;99.90
14099;DHT22;7126;48.458;7.930;2022-07-23T01:24:13;22.50;99.90
14099;DHT22;7126;48.458;7.930;2022-07-23T01:26:43;22.50;99.90
14099;DHT22;7126;48.458;7.930;2022-07-23T01:29:09;22.50;99.90
14099;DHT22;7126;48.458;7.930;2022-07-23T01:31:35;22.40;99.90
14099;DHT22;7126;48.458;7.930;2022-07-23T01:34:01;22.30;99.90
14099;DHT22;7126;48.458;7.930;2022-07-23T01:36:26;22.30;99.90
14099;DHT22;7126;48.458;7.930;2022-07-23T01:38:52;22.20;99.90
14099;DHT22;7126;48.458;7.930;2022-07-23T01:41:18;22.20;99.90
14099;DHT22;7126;48.458;7.930;2022-07-23T01:43:44;22.00;99.90
14099;DHT22;7126;48.458;7.930;2022-07-23T01:46:09;22.00;99.90
14099;DHT22;7126;48.458;7.930;2022-07-23T01:48:35;22.00;99.90
14099;DHT22;7126;48.458;7.930;2022-07-23T01:51:01;22.10;99.90
14099;DHT22;7126;48.458;7.930;2022-07-23T01:53:27;22.10;99.90
14099;DHT22;7126;48.458;7.930;2022-07-23T01:55:53;22.10;99.90
14099;DHT22;7126;48.458;7.930;2022-07-23T01:58:18;22.10;99.90
14099;DHT22;7126;48.458;7.930;2022-07-23T02:00:44;22.10;99.90
14099;DHT22;7126;48.458;7.930;2022-07-23T02:03:09;22.20;99.90
14099;DHT22;7126;48.458;7.930;2022-07-23T02:05:35;22.20;99.90
14099;DHT22;7126;48.458;7.930;2022-07-23T02:08:01;22.20;99.90
14099;DHT22;7126;48.458;7.930;2022-07-23T02:10:27;22.20;99.90
14099;DHT22;7126;48.458;7.930;2022-07-23T02:12:53;22.20;99.90
14099;DHT22;7126;48.458;7.930;2022-07-23T02:15:19;22.20;99.90
14099;DHT22;7126;48.458;7.930;2022-07-23T02:17:45;22.10;99.90
14099;DHT22;7126;48.458;7.930;2022-07-23T02:20:11;22.10;99.90
14099;DHT22;7126;48.458;7.930;2022-07-23T02:22:38;22.10;99.90
14099;DHT22;7126;48.458;7.930;2022-07-23T02:25:05;22.00;99.90
14099;DHT22;7126;48.458;7.930;2022-07-23T02:27:31;22.00;99.90
14099;DHT22;7126;48.458;7.930;2022-07-23T02:29:57;22.00;99.90
14099;DHT22;7126;48.458;7.930;2022-07-23T02:32:23;21.90;99.90
14099;DHT22;7126;48.458;7.930;2022-07-23T02:34:49;21.90;99.90
14099;DHT22;7126;48.458;7.930;2022-07-23T02:37:15;21.90;99.90
14099;DHT22;7126;48.458;7.930;2022-07-23T02:39:41;21.90;99.90
14099;DHT22;7126;48.458;7.930;2022-07-23T02:42:06;21.90;99.90
14099;DHT22;7126;48.458;7.930;2022-07-23T02:44:32;21.80;99.90
14099;DHT22;7126;48.458;7.930;2022-07-23T02:46:58;21.70;99.90
14099;DHT22;7126;48.458;7.930;2022-07-23T02:49:23;21.70;99.90
14099;DHT22;7126;48.458;7.930;2022-07-23T02:51:49;21.60;99.90
14099;DHT22;7126;48.458;7.930;2022-07-23T02:54:15;21.40;99.90
14099;DHT22;7126;48.458;7.930;2022-07-23T02:56:40;21.40;99.90
14099;DHT22;7126;48.458;7.930;2022-07-23T02:59:06;21.30;99.90
14099;DHT22;7126;48.458;7.930;2022-07-23T03:01:31;21.30;99.90
14099;DHT22;7126;48.458;7.930;2022-07-23T03:03:57;21.30;99.90
14099;DHT22;7126;48.458;7.930;2022-07-23T03:06:22;21.30;99.90
14099;DHT22;7126;48.458;7.930;2022-07-23T03:08:48;21.30;99.90
14099;DHT22;7126;48.458;7.930;2022-07-23T03:11:14;21.30;99.90
14099;DHT22;7126;48.458;7.930;2022-07-23T03:13:40;21.30;99.90
14099;DHT22;7126;48.458;7.930;2022-07-23T03:16:06;21.30;99.90
14099;DHT22;7126;48.458;7.930;2022-07-23T03:18:33;21.30;99.90
14099;DHT22;7126;48.458;7.930;2022-07-23T03:20:59;21.40;99.90
14099;DHT22;7126;48.458;7.930;2022-07-23T03:23:24;21.50;99.90
14099;DHT22;7126;48.458;7.930;2022-07-23T03:25:50;21.50;99.90
14099;DHT22;7126;48.458;7.930;2022-07-23T03:28:16;21.50;99.90
14099;DHT22;7126;48.458;7.930;2022-07-23T03:30:43;21.50;99.90
14099;DHT22;7126;48.458;7.930;2022-07-23T03:33:10;21.50;99.90
14099;DHT22;7126;48.458;7.930;2022-07-23T03:35:36;21.50;99.90
14099;DHT22;7126;48.458;7.930;2022-07-23T03:38:02;21.40;99.90
14099;DHT22;7126;48.458;7.930;2022-07-23T03:40:27;21.40;99.90
14099;DHT22;7126;48.458;7.930;2022-07-23T03:42:53;21.40;99.90
14099;DHT22;7126;48.458;7.930;2022-07-23T03:45:18;21.40;99.90
14099;DHT22;7126;48.458;7.930;2022-07-23T03:47:44;21.40;99.90
14099;DHT22;7126;48.458;7.930;2022-07-23T03:50:10;21.30;99.90
14099;DHT22;7126;48.458;7.930;2022-07-23T03:52:36;21.30;99.90
14099;DHT22;7126;48.458;7.930;2022-07-23T03:55:02;21.40;99.90
14099;DHT22;7126;48.458;7.930;2022-07-23T03:57:28;21.30;99.90
14099;DHT22;7126;48.458;7.930;2022-07-23T03:59:54;21.20;99.90
14099;DHT22;7126;48.458;7.930;2022-07-23T04:02:19;21.20;99.90
14099;DHT22;7126;48.458;7.930;2022-07-23T04:04:45;21.20;99.90
14099;DHT22;7126;48.458;7.930;2022-07-23T04:07:12;21.20;99.90
14099;DHT22;7126;48.458;7.930;2022-07-23T04:09:38;21.10;99.90
14099;DHT22;7126;48.458;7.930;2022-07-23T04:12:06;21.10;99.90
14099;DHT22;7126;48.458;7.930;2022-07-23T04:14:32;21.10;99.90
14099;DHT22;7126;48.458;7.930;2022-07-23T04:16:58;21.00;99.90
14099;DHT22;7126;48.458;7.930;2022-07-23T04:19:24;21.00;99.90
14099;DHT22;7126;48.458;7.930;2022-07-23T04:21:50;21.00;99.90
14099;DHT22;7126;48.458;7.930;2022-07-23T04:24:16;21.00;99.90
14099;DHT22;7126;48.458;7.930;2022-07-23T04:26:41;20.90;99.90
14099;DHT22;7126;48.458;7.930;2022-07-23T04:29:07;20.90;99.90
14099;DHT22;7126;48.458;7.930;2022-07-23T04:31:32;20.90;99.90
14099;DHT22;7126;48.458;7.930;2022-07-23T04:33:58;20.90;99.90
14099;DHT22;7126;48.458;7.930;2022-07-23T04:36:24;20.90;99.90
14099;DHT22;7126;48.458;7.930;2022-07-23T04:38:49;20.90;99.90
14099;DHT22;7126;48.458;7.930;2022-07-23T04:41:15;21.00;99.90
14099;DHT22;7126;48.458;7.930;2022-07-23T04:43:40;20.90;99.90
14099;DHT22;7126;48.458;7.930;2022-07-23T04:46:06;20.90;99.90
14099;DHT22;7126;48.458;7.930;2022-07-23T04:48:32;20.90;99.90
14099;DHT22;7126;48.458;7.930;2022-07-23T04:50:57;20.90;99.90
14099;DHT22;7126;48.458;7.930;2022-07-23T04:53:23;21.00;99.90
14099;DHT22;7126;48.458;7.930;2022-07-23T04:55:49;21.00;99.90
14099;DHT22;7126;48.458;7.930;2022-07-23T04:58:14;21.10;99.90
14099;DHT22;7126;48.458;7.930;2022-07-23T05:00:40;21.10;99.90
14099;DHT22;7126;48.458;7.930;2022-07-23T05:03:06;21.20;99.90
14099;DHT22;7126;48.458;7.930;2022-07-23T05:05:31;21.30;99.90
14099;DHT22;7126;48.458;7.930;2022-07-23T05:07:57;21.30;99.90
14099;DHT22;7126;48.458;7.930;2022-07-23T05:10:22;21.30;99.90
14099;DHT22;7126;48.458;7.930;2022-07-23T05:12:48;21.30;99.90
14099;DHT22;7126;48.458;7.930;2022-07-23T05:15:13;21.30;99.90
14099;DHT22;7126;48.458;7.930;2022-07-23T05:17:39;21.30;99.90
14099;DHT22;7126;48.458;7.930;2022-07-23T05:20:05;21.20;99.90
14099;DHT22;7126;48.458;7.930;2022-07-23T05:22:31;21.30;99.90
14099;DHT22;7126;48.458;7.930;2022-07-23T05:24:56;21.40;99.90
14099;DHT22;7126;48.458;7.930;2022-07-23T05:27:22;21.50;99.90
14099;DHT22;7126;48.458;7.930;2022-07-23T05:29:48;21.50;99.90
14099;DHT22;7126;48.458;7.930;2022-07-23T05:32:13;21.60;99.90
14099;DHT22;7126;48.458;7.930;2022-07-23T05:34:39;21.60;99.90
14099;DHT22;7126;48.458;7.930;2022-07-23T05:37:05;21.70;99.90
14099;DHT22;7126;48.458;7.930;2022-07-23T05:39:31;21.80;99.90
14099;DHT22;7126;48.458;7.930;2022-07-23T05:41:57;21.70;99.90
14099;DHT22;7126;48.458;7.930;2022-07-23T05:44:22;21.90;99.90
14099;DHT22;7126;48.458;7.930;2022-07-23T05:46:48;22.00;99.90
14099;DHT22;7126;48.458;7.930;2022-07-23T05:49:13;22.00;99.90
14099;DHT22;7126;48.458;7.930;2022-07-23T05:51:39;22.10;99.90
14099;DHT22;7126;48.458;7.930;2022-07-23T05:54:05;22.10;99.90
14099;DHT22;7126;48.458;7.930;2022-07-23T05:56:30;22.10;99.90
14099;DHT22;7126;48.458;7.930;2022-07-23T05:58:56;22.00;99.90
14099;DHT22;7126;48.458;7.930;2022-07-23T06:01:21;22.10;99.90
14099;DHT22;7126;48.458;7.930;2022-07-23T06:03:47;22.10;99.90
14099;DHT22;7126;48.458;7.930;2022-07-23T06:06:13;22.10;99.90
14099;DHT22;7126;48.458;7.930;2022-07-23T06:08:38;22.20;99.90
14099;DHT22;7126;48.458;7.930;2022-07-23T06:11:04;22.20;99.90
14099;DHT22;7126;48.458;7.930;2022-07-23T06:13:29;22.20;99.90
14099;DHT22;7126;48.458;7.930;2022-07-23T06:15:55;22.20;99.90
14099;DHT22;7126;48.458;7.930;2022-07-23T06:18:20;22.40;99.90
14099;DHT22;7126;48.458;7.930;2022-07-23T06:20:46;22.40;99.90
14099;DHT22;7126;48.458;7.930;2022-07-23T06:23:12;22.50;99.90
14099;DHT22;7126;48.458;7.930;2022-07-23T06:25:38;22.50;99.90
14099;DHT22;7126;48.458;7.930;2022-07-23T06:28:03;22.50;99.90
14099;DHT22;7126;48.458;7.930;2022-07-23T06:30:29;22.60;99.90
14099;DHT22;7126;48.458;7.930;2022-07-23T06:32:55;22.70;99.90
14099;DHT22;7126;48.458;7.930;2022-07-23T06:35:20;22.70;99.90
14099;DHT22;7126;48.458;7.930;2022-07-23T06:37:46;22.80;99.90
14099;DHT22;7126;48.458;7.930;2022-07-23T06:40:12;22.90;99.90
14099;DHT22;7126;48.458;7.930;2022-07-23T06:42:38;23.00;99.90
14099;DHT22;7126;48.458;7.930;2022-07-23T06:45:05;23.00;99.90
14099;DHT22;7126;48.458;7.930;2022-07-23T06:47:31;23.10;99.90
14099;DHT22;7126;48.458;7.930;2022-07-23T06:49:57;23.20;99.90
14099;DHT22;7126;48.458;7.930;2022-07-23T06:52:23;23.20;99.90
14099;DHT22;7126;48.458;7.930;2022-07-23T06:54:48;23.30;99.90
14099;DHT22;7126;48.458;7.930;2022-07-23T06:57:14;23.30;99.90
14099;DHT22;7126;48.458;7.930;2022-07-23T06:59:40;23.40;99.90
14099;DHT22;7126;48.458;7.930;2022-07-23T07:02:09;23.40;99.90
14099;DHT22;7126;48.458;7.930;2022-07-23T07:04:34;23.50;99.90
14099;DHT22;7126;48.458;7.930;2022-07-23T07:07:00;23.50;99.90
14099;DHT22;7126;48.458;7.930;2022-07-23T07:09:26;23.60;99.90
14099;DHT22;7126;48.458;7.930;2022-07-23T07:11:52;23.70;99.90
14099;DHT22;7126;48.458;7.930;2022-07-23T07:14:17;23.70;99.90
14099;DHT22;7126;48.458;7.930;2022-07-23T07:16:43;23.70;99.90
14099;DHT22;7126;48.458;7.930;2022-07-23T07:19:08;23.60;99.90
14099;DHT22;7126;48.458;7.930;2022-07-23T07:21:34;23.60;99.90
14099;DHT22;7126;48.458;7.930;2022-07-23T07:24:01;23.60;99.90
14099;DHT22;7126;48.458;7.930;2022-07-23T07:26:27;23.70;99.90
14099;DHT22;7126;48.458;7.930;2022-07-23T07:28:53;23.80;99.90
14099;DHT22;7126;48.458;7.930;2022-07-23T07:31:19;23.90;99.90
14099;DHT22;7126;48.458;7.930;2022-07-23T07:33:44;24.00;99.90
14099;DHT22;7126;48.458;7.930;2022-07-23T07:36:10;24.00;99.90
14099;DHT22;7126;48.458;7.930;2022-07-23T07:38:35;24.00;99.90
14099;DHT22;7126;48.458;7.930;2022-07-23T07:41:01;24.00;99.90
14099;DHT22;7126;48.458;7.930;2022-07-23T07:43:27;24.10;99.90
14099;DHT22;7126;48.458;7.930;2022-07-23T07:45:52;24.10;99.90
14099;DHT22;7126;48.458;7.930;2022-07-23T07:48:18;24.20;99.90
14099;DHT22;7126;48.458;7.930;2022-07-23T07:50:44;24.30;99.90
14099;DHT22;7126;48.458;7.930;2022-07-23T07:53:09;24.20;99.90
14099;DHT22;7126;48.458;7.930;2022-07-23T07:55:35;24.30;99.90
14099;DHT22;7126;48.458;7.930;2022-07-23T07:58:01;24.30;99.90
14099;DHT22;7126;48.458;7.930;2022-07-23T08:00:27;24.30;99.90
14099;DHT22;7126;48.458;7.930;2022-07-23T08:02:53;24.40;99.90
14099;DHT22;7126;48.458;7.930;2022-07-23T08:05:29;24.40;99.90
14099;DHT22;7126;48.458;7.930;2022-07-23T08:07:56;24.40;99.90
14099;DHT22;7126;48.458;7.930;2022-07-23T08:10:23;24.50;99.90
14099;DHT22;7126;48.458;7.930;2022-07-23T08:12:51;24.50;99.90
14099;DHT22;7126;48.458;7.930;2022-07-23T08:15:19;24.70;99.90
14099;DHT22;7126;48.458;7.930;2022-07-23T08:17:46;24.70;99.90
14099;DHT22;7126;48.458;7.930;2022-07-23T08:20:13;24.80;99.90
14099;DHT22;7126;48.458;7.930;2022-07-23T08:22:56;24.80;99.90
14099;DHT22;7126;48.458;7.930;2022-07-23T08:25:28;25.00;99.90
14099;DHT22;7126;48.458;7.930;2022-07-23T08:27:54;25.20;99.90
14099;DHT22;7126;48.458;7.930;2022-07-23T08:30:20;25.30;99.90
14099;DHT22;7126;48.458;7.930;2022-07-23T08:33:15;25.40;99.90
14099;DHT22;7126;48.458;7.930;2022-07-23T08:35:47;25.50;99.90
14099;DHT22;7126;48.458;7.930;2022-07-23T08:38:15;25.60;99.90
14099;DHT22;7126;48.458;7.930;2022-07-23T08:40:43;25.60;99.90
14099;DHT22;7126;48.458;7.930;2022-07-23T08:43:15;25.60;99.90
14099;DHT22;7126;48.458;7.930;2022-07-23T08:45:43;25.70;99.90
14099;DHT22;7126;48.458;7.930;2022-07-23T08:48:20;25.70;99.90
14099;DHT22;7126;48.458;7.930;2022-07-23T08:50:49;25.80;99.90
14099;DHT22;7126;48.458;7.930;2022-07-23T08:53:16;25.90;99.90
14099;DHT22;7126;48.458;7.930;2022-07-23T08:55:51;26.00;99.90
14099;DHT22;7126;48.458;7.930;2022-07-23T08:58:17;26.10;99.90
14099;DHT22;7126;48.458;7.930;2022-07-23T09:00:44;26.20;99.90
14099;DHT22;7126;48.458;7.930;2022-07-23T09:03:22;26.30;99.90
14099;DHT22;7126;48.458;7.930;2022-07-23T09:05:50;26.40;99.90
14099;DHT22;7126;48.458;7.930;2022-07-23T09:08:20;26.50;99.90
14099;DHT22;7126;48.458;7.930;2022-07-23T09:16:02;26.80;99.90
14099;DHT22;7126;48.458;7.930;2022-07-23T09:18:53;26.90;99.90
14099;DHT22;7126;48.458;7.930;2022-07-23T09:24:00;27.00;99.90
14099;DHT22;7126;48.458;7.930;2022-07-23T09:26:31;27.00;99.90
14099;DHT22;7126;48.458;7.930;2022-07-23T09:31:24;27.10;99.90
14099;DHT22;7126;48.458;7.930;2022-07-23T09:33:50;27.10;99.90
14099;DHT22;7126;48.458;7.930;2022-07-23T09:36:27;27.20;99.90
14099;DHT22;7126;48.458;7.930;2022-07-23T09:38:54;27.30;99.90
14099;DHT22;7126;48.458;7.930;2022-07-23T09:41:19;27.30;99.90
14099;DHT22;7126;48.458;7.930;2022-07-23T09:43:45;27.40;99.90
14099;DHT22;7126;48.458;7.930;2022-07-23T09:46:25;27.60;99.90
14099;DHT22;7126;48.458;7.930;2022-07-23T09:48:52;27.70;99.90
14099;DHT22;7126;48.458;7.930;2022-07-23T09:51:19;27.90;99.90
14099;DHT22;7126;48.458;7.930;2022-07-23T09:54:03;28.00;99.90
14099;DHT22;7126;48.458;7.930;2022-07-23T09:56:29;28.10;99.90
14099;DHT22;7126;48.458;7.930;2022-07-23T09:58:55;28.10;99.90
14099;DHT22;7126;48.458;7.930;2022-07-23T10:01:36;28.10;99.90
14099;DHT22;7126;48.458;7.930;2022-07-23T10:04:01;28.00;99.90
14099;DHT22;7126;48.458;7.930;2022-07-23T10:06:28;28.10;99.90
14099;DHT22;7126;48.458;7.930;2022-07-23T10:08:57;28.20;99.90
14099;DHT22;7126;48.458;7.930;2022-07-23T10:11:24;28.30;99.90
14099;DHT22;7126;48.458;7.930;2022-07-23T10:13:50;28.40;99.90
14099;DHT22;7126;48.458;7.930;2022-07-23T10:16:25;28.50;99.90
14099;DHT22;7126;48.458;7.930;2022-07-23T10:18:52;28.60;99.90
14099;DHT22;7126;48.458;7.930;2022-07-23T10:24:18;28.80;99.90
14099;DHT22;7126;48.458;7.930;2022-07-23T10:29:55;28.90;99.90
14099;DHT22;7126;48.458;7.930;2022-07-23T10:35:43;28.90;99.90
14099;DHT22;7126;48.458;7.930;2022-07-23T10:38:58;28.90;99.90
14099;DHT22;7126;48.458;7.930;2022-07-23T10:41:35;28.90;99.90
14099;DHT22;7126;48.458;7.930;2022-07-23T10:44:19;29.00;99.90
14099;DHT22;7126;48.458;7.930;2022-07-23T10:47:00;29.10;99.90
14099;DHT22;7126;48.458;7.930;2022-07-23T10:49:44;29.10;99.90
14099;DHT22;7126;48.458;7.930;2022-07-23T10:52:26;29.20;99.90
14099;DHT22;7126;48.458;7.930;2022-07-23T10:54:55;29.20;99.90
14099;DHT22;7126;48.458;7.930;2022-07-23T10:57:27;29.20;99.90
14099;DHT22;7126;48.458;7.930;2022-07-23T11:02:36;29.30;99.90
14099;DHT22;7126;48.458;7.930;2022-07-23T11:05:06;29.20;99.90
14099;DHT22;7126;48.458;7.930;2022-07-23T11:07:37;29.30;99.90
14099;DHT22;7126;48.458;7.930;2022-07-23T11:10:36;29.50;99.90
14099;DHT22;7126;48.458;7.930;2022-07-23T11:24:09;29.90;99.90
14099;DHT22;7126;48.458;7.930;2022-07-23T11:31:55;30.10;99.90
14099;DHT22;7126;48.458;7.930;2022-07-23T11:34:44;30.30;99.90
14099;DHT22;7126;48.458;7.930;2022-07-23T11:37:26;30.60;99.90
14099;DHT22;7126;48.458;7.930;2022-07-23T11:39:55;30.70;99.90
14099;DHT22;7126;48.458;7.930;2022-07-23T11:42:21;30.60;99.90
14099;DHT22;7126;48.458;7.930;2022-07-23T11:44:47;30.60;99.90
14099;DHT22;7126;48.458;7.930;2022-07-23T11:47:13;30.60;99.90
14099;DHT22;7126;48.458;7.930;2022-07-23T11:49:43;30.60;99.90
14099;DHT22;7126;48.458;7.930;2022-07-23T11:52:16;30.70;99.90
14099;DHT22;7126;48.458;7.930;2022-07-23T11:55:00;30.80;99.90
14099;DHT22;7126;48.458;7.930;2022-07-23T11:57:35;30.80;99.90
14099;DHT22;7126;48.458;7.930;2022-07-23T12:02:30;30.80;99.90
14099;DHT22;7126;48.458;7.930;2022-07-23T12:04:56;30.80;99.90
14099;DHT22;7126;48.458;7.930;2022-07-23T12:07:38;30.70;99.90
14099;DHT22;7126;48.458;7.930;2022-07-23T12:10:08;30.70;99.90
14099;DHT22;7126;48.458;7.930;2022-07-23T12:12:43;30.80;99.90
14099;DHT22;7126;48.458;7.930;2022-07-23T12:15:13;30.80;99.90
14099;DHT22;7126;48.458;7.930;2022-07-23T12:17:41;30.70;99.90
14099;DHT22;7126;48.458;7.930;2022-07-23T12:20:09;30.70;99.90
14099;DHT22;7126;48.458;7.930;2022-07-23T12:22:45;30.70;99.90
14099;DHT22;7126;48.458;7.930;2022-07-23T12:25:17;30.60;99.90
14099;DHT22;7126;48.458;7.930;2022-07-23T12:27:44;30.50;99.90
14099;DHT22;7126;48.458;7.930;2022-07-23T12:30:25;30.40;99.90
14099;DHT22;7126;48.458;7.930;2022-07-23T12:32:55;30.30;99.90
14099;DHT22;7126;48.458;7.930;2022-07-23T12:35:23;30.30;99.90
14099;DHT22;7126;48.458;7.930;2022-07-23T12:37:50;30.30;99.90
14099;DHT22;7126;48.458;7.930;2022-07-23T12:40:34;30.20;99.90
14099;DHT22;7126;48.458;7.930;2022-07-23T12:43:03;30.20;99.90
14099;DHT22;7126;48.458;7.930;2022-07-23T12:48:32;30.30;99.90
14099;DHT22;7126;48.458;7.930;2022-07-23T12:51:01;30.30;99.90
14099;DHT22;7126;48.458;7.930;2022-07-23T12:53:31;30.40;99.90
14099;DHT22;7126;48.458;7.930;2022-07-23T12:56:18;30.40;99.90
14099;DHT22;7126;48.458;7.930;2022-07-23T12:58:59;30.30;99.90
14099;DHT22;7126;48.458;7.930;2022-07-23T13:01:32;30.30;99.90
14099;DHT22;7126;48.458;7.930;2022-07-23T13:04:09;30.40;99.90
14099;DHT22;7126;48.458;7.930;2022-07-23T13:06:44;30.50;99.90
14099;DHT22;7126;48.458;7.930;2022-07-23T13:09:13;30.50;99.90
14099;DHT22;7126;48.458;7.930;2022-07-23T13:11:39;30.80;99.90
14099;DHT22;7126;48.458;7.930;2022-07-23T13:14:05;31.10;99.90
14099;DHT22;7126;48.458;7.930;2022-07-23T13:16:31;31.10;99.90
14099;DHT22;7126;48.458;7.930;2022-07-23T13:18:58;31.20;99.90
14099;DHT22;7126;48.458;7.930;2022-07-23T13:21:24;31.40;99.90
14099;DHT22;7126;48.458;7.930;2022-07-23T13:23:50;31.70;99.90
14099;DHT22;7126;48.458;7.930;2022-07-23T13:26:16;31.90;99.90
14099;DHT22;7126;48.458;7.930;2022-07-23T13:28:42;32.00;99.90
14099;DHT22;7126;48.458;7.930;2022-07-23T13:31:08;32.10;99.90
14099;DHT22;7126;48.458;7.930;2022-07-23T13:33:34;32.20;99.90
14099;DHT22;7126;48.458;7.930;2022-07-23T13:36:00;32.20;99.90
14099;DHT22;7126;48.458;7.930;2022-07-23T13:38:26;31.90;99.90
14099;DHT22;7126;48.458;7.930;2022-07-23T13:40:53;31.50;99.90
14099;DHT22;7126;48.458;7.930;2022-07-23T13:43:20;31.40;99.90
14099;DHT22;7126;48.458;7.930;2022-07-23T13:45:47;31.20;99.90
14099;DHT22;7126;48.458;7.930;2022-07-23T13:48:13;31.10;99.90
14099;DHT22;7126;48.458;7.930;2022-07-23T13:50:40;31.00;99.90
14099;DHT22;7126;48.458;7.930;2022-07-23T13:53:09;30.90;99.90
14099;DHT22;7126;48.458;7.930;2022-07-23T13:55:36;30.80;99.90
14099;DHT22;7126;48.458;7.930;2022-07-23T13:58:03;30.60;99.90
14099;DHT22;7126;48.458;7.930;2022-07-23T14:00:30;30.50;99.90
14099;DHT22;7126;48.458;7.930;2022-07-23T14:02:57;30.80;99.90
14099;DHT22;7126;48.458;7.930;2022-07-23T14:05:23;31.10;99.90
14099;DHT22;7126;48.458;7.930;2022-07-23T14:07:48;31.20;99.90
14099;DHT22;7126;48.458;7.930;2022-07-23T14:10:16;31.20;99.90
14099;DHT22;7126;48.458;7.930;2022-07-23T14:12:43;31.30;99.90
14099;DHT22;7126;48.458;7.930;2022-07-23T14:15:09;31.30;99.90
14099;DHT22;7126;48.458;7.930;2022-07-23T14:17:40;31.30;99.90
14099;DHT22;7126;48.458;7.930;2022-07-23T14:20:07;31.30;99.90
14099;DHT22;7126;48.458;7.930;2022-07-23T14:22:33;31.40;99.90
14099;DHT22;7126;48.458;7.930;2022-07-23T14:24:59;31.60;99.90
14099;DHT22;7126;48.458;7.930;2022-07-23T14:27:26;31.50;99.90
14099;DHT22;7126;48.458;7.930;2022-07-23T14:29:52;31.30;99.90
14099;DHT22;7126;48.458;7.930;2022-07-23T14:32:18;31.10;99.90
14099;DHT22;7126;48.458;7.930;2022-07-23T14:34:44;30.90;99.90
14099;DHT22;7126;48.458;7.930;2022-07-23T14:37:10;30.70;99.90
14099;DHT22;7126;48.458;7.930;2022-07-23T14:39:40;30.70;99.90
14099;DHT22;7126;48.458;7.930;2022-07-23T14:42:06;30.70;99.90
14099;DHT22;7126;48.458;7.930;2022-07-23T14:44:32;30.70;99.90
14099;DHT22;7126;48.458;7.930;2022-07-23T14:46:57;30.60;99.90
14099;DHT22;7126;48.458;7.930;2022-07-23T14:49:23;30.50;99.90
14099;DHT22;7126;48.458;7.930;2022-07-23T14:51:49;30.70;99.90
14099;DHT22;7126;48.458;7.930;2022-07-23T14:54:15;30.70;99.90
14099;DHT22;7126;48.458;7.930;2022-07-23T14:56:41;30.70;99.90
14099;DHT22;7126;48.458;7.930;2022-07-23T14:59:07;30.60;99.90
14099;DHT22;7126;48.458;7.930;2022-07-23T15:01:34;30.80;99.90
14099;DHT22;7126;48.458;7.930;2022-07-23T15:03:59;30.90;99.90
14099;DHT22;7126;48.458;7.930;2022-07-23T15:06:25;30.80;99.90
14099;DHT22;7126;48.458;7.930;2022-07-23T15:08:51;30.60;99.90
14099;DHT22;7126;48.458;7.930;2022-07-23T15:11:17;30.40;99.90
14099;DHT22;7126;48.458;7.930;2022-07-23T15:13:43;30.30;99.90
14099;DHT22;7126;48.458;7.930;2022-07-23T15:16:09;30.20;99.90
14099;DHT22;7126;48.458;7.930;2022-07-23T15:18:35;30.10;99.90
14099;DHT22;7126;48.458;7.930;2022-07-23T15:21:01;30.00;99.90
14099;DHT22;7126;48.458;7.930;2022-07-23T15:23:27;30.10;99.90
14099;DHT22;7126;48.458;7.930;2022-07-23T15:25:54;30.00;99.90
14099;DHT22;7126;48.458;7.930;2022-07-23T15:28:21;30.00;99.90
14099;DHT22;7126;48.458;7.930;2022-07-23T15:30:46;30.00;99.90
14099;DHT22;7126;48.458;7.930;2022-07-23T15:33:12;30.00;99.90
14099;DHT22;7126;48.458;7.930;2022-07-23T15:35:38;29.90;99.90
14099;DHT22;7126;48.458;7.930;2022-07-23T15:38:03;29.90;99.90
14099;DHT22;7126;48.458;7.930;2022-07-23T15:40:29;29.90;99.90
14099;DHT22;7126;48.458;7.930;2022-07-23T15:42:54;29.90;99.90
14099;DHT22;7126;48.458;7.930;2022-07-23T15:45:20;29.90;99.90
14099;DHT22;7126;48.458;7.930;2022-07-23T15:47:47;30.00;99.90
14099;DHT22;7126;48.458;7.930;2022-07-23T15:50:13;29.90;99.90
14099;DHT22;7126;48.458;7.930;2022-07-23T15:52:38;29.90;99.90
14099;DHT22;7126;48.458;7.930;2022-07-23T15:55:05;29.80;99.90
14099;DHT22;7126;48.458;7.930;2022-07-23T15:57:31;29.70;99.90
14099;DHT22;7126;48.458;7.930;2022-07-23T15:59:56;29.70;99.90
14099;DHT22;7126;48.458;7.930;2022-07-23T16:02:23;29.70;99.90
14099;DHT22;7126;48.458;7.930;2022-07-23T16:04:49;29.70;99.90
14099;DHT22;7126;48.458;7.930;2022-07-23T16:07:19;29.70;99.90
14099;DHT22;7126;48.458;7.930;2022-07-23T16:09:45;29.60;99.90
14099;DHT22;7126;48.458;7.930;2022-07-23T16:12:11;29.60;99.90
14099;DHT22;7126;48.458;7.930;2022-07-23T16:14:38;29.50;99.90
14099;DHT22;7126;48.458;7.930;2022-07-23T16:17:04;29.40;99.90
14099;DHT22;7126;48.458;7.930;2022-07-23T16:19:30;29.30;99.90
14099;DHT22;7126;48.458;7.930;2022-07-23T16:21:55;29.20;99.90
14099;DHT22;7126;48.458;7.930;2022-07-23T16:24:21;29.10;99.90
14099;DHT22;7126;48.458;7.930;2022-07-23T16:26:47;29.10;99.90
14099;DHT22;7126;48.458;7.930;2022-07-23T16:29:12;29.00;99.90
14099;DHT22;7126;48.458;7.930;2022-07-23T16:31:38;29.00;99.90